Time;durP1;ratioP1;P1;durP2;ratioP2;P2;SDS_P1;SDS_P2;PMS_P1;PMS_P2;Temp;Humidity;BMP_temperature;BMP_pressure;BME280_temperature;BME280_humidity;BME280_pressure;Samples;Min_cycle;Max_cycle;Signal;HPM_P1;HPM_P2
2022/03/29 00:02:04;;;;;;;5.22;1.77;;;;;;;2.21;64.17;96683.44;5056441;28;20044;-70
2022/03/29 00:04:35;;;;;;;6.05;1.58;;;;;;;2.16;64.43;96688.91;5067635;28;20051;-71
2022/03/29 00:07:02;;;;;;;6.85;1.60;;;;;;;2.25;64.14;96687.91;5071558;28;20059;-70
2022/03/29 00:09:29;;;;;;;4.43;1.20;;;;;;;2.17;64.33;96688.63;5094578;28;20039;-71
2022/03/29 00:11:55;;;;;;;4.95;1.20;;;;;;;2.15;64.50;96684.59;5057897;28;20054;-70
2022/03/29 00:14:21;;;;;;;3.95;1.38;;;;;;;2.14;64.44;96691.91;5097123;28;20048;-70
2022/03/29 00:20:35;;;;;;;3.20;1.33;;;;;;;2.20;64.51;96693.41;5083766;28;20047;-71
2022/03/29 00:23:01;;;;;;;5.05;1.42;;;;;;;2.18;64.58;96692.91;5096081;28;20060;-70
2022/03/29 00:25:28;;;;;;;2.28;1.13;;;;;;;2.26;64.19;96696.81;5092310;28;20549;-70
2022/03/29 00:27:54;;;;;;;2.80;1.10;;;;;;;2.20;64.43;96704.19;5079791;28;20043;-70
2022/03/29 00:30:21;;;;;;;3.60;1.30;;;;;;;2.23;64.18;96705.50;5070890;28;20086;-69
2022/03/29 00:32:47;;;;;;;4.95;1.45;;;;;;;2.19;64.46;96708.00;5092431;28;20433;-67
2022/03/29 00:35:13;;;;;;;4.43;1.40;;;;;;;2.21;64.64;96711.19;5089353;28;20070;-66
2022/03/29 00:37:42;;;;;;;4.85;1.35;;;;;;;2.20;64.51;96709.59;5076253;28;20040;-67
2022/03/29 00:40:10;;;;;;;5.15;1.50;;;;;;;2.01;64.93;96665.72;5078066;28;20054;-70
2022/03/29 00:42:38;;;;;;;3.95;1.30;;;;;;;2.16;65.00;96713.97;5097619;28;20051;-68
2022/03/29 00:45:05;;;;;;;6.40;1.40;;;;;;;2.21;64.83;96703.09;5076500;28;20047;-70
2022/03/29 00:47:32;;;;;;;4.53;1.40;;;;;;;2.20;64.85;96700.72;5076299;28;20465;-73
2022/03/29 00:49:58;;;;;;;5.82;1.33;;;;;;;2.21;64.84;96710.41;5098373;28;20295;-73
2022/03/29 00:52:25;;;;;;;3.55;1.20;;;;;;;2.24;64.63;96702.50;5093473;28;20047;-68
2022/03/29 00:54:52;;;;;;;3.65;1.30;;;;;;;2.22;64.70;96714.69;5091967;28;20073;-70
2022/03/29 00:57:18;;;;;;;5.38;1.20;;;;;;;2.17;64.41;96685.91;5095893;28;20048;-69
2022/03/29 00:59:46;;;;;;;4.10;1.30;;;;;;;2.34;64.11;96701.56;5096409;28;20131;-70
2022/03/29 01:02:13;;;;;;;5.55;1.65;;;;;;;2.24;64.41;96707.88;5074736;28;20071;-68
2022/03/29 01:04:39;;;;;;;3.65;1.20;;;;;;;2.19;64.56;96697.19;5077577;28;20047;-70
2022/03/29 01:07:07;;;;;;;3.78;1.30;;;;;;;2.28;64.26;96697.31;5095223;28;20071;-70
2022/03/29 01:09:33;;;;;;;;;;;;;;;2.35;63.90;96696.94;5072837;28;20122;-69
2022/03/29 01:12:01;;;;;;;4.03;1.58;;;;;;;2.36;63.65;96701.22;5086692;28;19931;-68
2022/03/29 01:14:28;;;;;;;4.18;1.52;;;;;;;2.47;63.28;96699.97;5078170;28;20516;-69
2022/03/29 01:19:41;;;;;;;4.85;1.50;;;;;;;2.34;63.44;96695.34;5069853;28;20039;-69
2022/03/29 01:22:10;;;;;;;5.68;1.73;;;;;;;2.32;63.58;96676.75;5081668;28;20403;-69
2022/03/29 01:24:37;;;;;;;4.00;1.23;;;;;;;2.26;63.40;96691.44;5076810;28;20120;-69
2022/03/29 01:27:05;;;;;;;4.40;1.35;;;;;;;2.24;63.72;96699.03;5096098;28;20056;-69
2022/03/29 01:29:33;;;;;;;8.10;1.55;;;;;;;2.14;63.93;96694.59;5058933;28;20048;-69
2022/03/29 01:32:02;;;;;;;;;;;;;;;2.16;63.75;96697.81;5073965;28;20043;-69
2022/03/29 01:34:28;;;;;;;3.47;1.23;;;;;;;2.19;63.50;96689.13;5081203;28;19924;-69
2022/03/29 01:36:55;;;;;;;3.30;1.15;;;;;;;2.24;63.50;96680.94;5096010;28;20036;-67
2022/03/29 01:39:22;;;;;;;5.35;1.58;;;;;;;2.24;63.38;96693.63;5092614;28;20047;-74
2022/03/29 01:41:49;;;;;;;6.13;1.48;;;;;;;2.13;63.74;96693.78;5081793;28;20040;-74
2022/03/29 01:44:15;;;;;;;5.47;1.48;;;;;;;2.23;63.61;96694.72;5075213;28;20109;-74
2022/03/29 01:46:41;;;;;;;6.47;1.30;;;;;;;2.27;63.56;96679.53;5098140;28;20059;-74
2022/03/29 01:49:10;;;;;;;4.40;1.48;;;;;;;2.22;63.81;96677.72;5078384;28;20109;-74
2022/03/29 01:51:36;;;;;;;3.78;0.98;;;;;;;2.26;63.38;96702.22;5065579;28;20044;-74
2022/03/29 01:54:03;;;;;;;7.47;1.98;;;;;;;2.21;63.57;96721.97;5105400;28;20499;-74
2022/03/29 01:56:32;;;;;;;2.80;1.10;;;;;;;2.28;63.32;96674.97;5089603;28;20050;-75
2022/03/29 01:58:59;;;;;;;4.43;1.38;;;;;;;2.32;63.19;96678.66;5069740;28;20454;-74
2022/03/29 02:01:25;;;;;;;4.60;1.63;;;;;;;2.35;63.33;96713.94;5071229;28;20040;-75
2022/03/29 02:03:52;;;;;;;5.88;1.50;;;;;;;2.37;63.24;96708.22;5072156;28;20478;-75
2022/03/29 02:06:18;;;;;;;3.50;1.20;;;;;;;2.34;63.47;96695.34;5089545;28;20048;-75
2022/03/29 02:08:45;;;;;;;3.28;1.13;;;;;;;2.40;63.20;96711.13;5055219;28;20093;-74
2022/03/29 02:11:11;;;;;;;6.40;1.45;;;;;;;2.46;63.00;96713.72;5089420;28;20508;-75
2022/03/29 02:13:38;;;;;;;3.90;1.50;;;;;;;2.39;63.11;96717.63;5085510;28;20055;-76
2022/03/29 02:16:05;;;;;;;2.78;1.08;;;;;;;2.45;63.04;96712.13;5071710;28;20060;-75
2022/03/29 02:18:31;;;;;;;3.37;1.40;;;;;;;2.40;63.05;96705.75;5089404;28;20051;-74
2022/03/29 02:20:57;;;;;;;3.95;1.20;;;;;;;2.45;62.91;96712.94;5090620;28;20320;-75
2022/03/29 02:23:27;;;;;;;6.18;1.42;;;;;;;2.29;62.76;96708.91;5090337;28;20040;-75
2022/03/29 02:25:53;;;;;;;4.03;1.05;;;;;;;2.35;62.95;96722.03;5054505;28;20120;-74
2022/03/29 02:28:20;;;;;;;3.50;1.23;;;;;;;2.41;63.02;96728.09;5088593;28;20036;-74
2022/03/29 02:30:47;;;;;;;7.03;1.27;;;;;;;2.44;62.82;96726.72;5072647;28;20055;-74
2022/03/29 02:33:13;;;;;;;4.82;1.50;;;;;;;2.50;62.46;96733.63;5055048;28;20044;-75
2022/03/29 02:35:39;;;;;;;2.65;1.10;;;;;;;2.44;62.60;96730.22;5069947;28;20516;-75
2022/03/29 02:45:07;;;;;;;5.45;1.38;;;;;;;2.45;62.09;96723.72;5098844;28;20052;-75
2022/03/29 02:57:50;;;;;;;4.53;1.27;;;;;;;2.67;61.13;96747.34;5074195;28;20044;-75
2022/03/29 03:00:18;;;;;;;4.78;1.10;;;;;;;2.68;60.93;96746.25;5085290;28;20071;-75
2022/03/29 03:03:03;;;;;;;4.70;1.13;;;;;;;2.53;61.25;96741.13;5100111;28;20051;-75
2022/03/29 03:05:30;;;;;;;6.20;2.17;;;;;;;2.50;61.33;96749.81;5090387;28;20518;-75
2022/03/29 03:14:32;;;;;;;3.58;1.40;;;;;;;2.39;61.72;96752.69;5091203;28;20051;-75
2022/03/29 03:16:59;;;;;;;8.07;1.70;;;;;;;2.25;62.28;96755.31;5066202;28;20055;-75
2022/03/29 03:19:28;;;;;;;7.63;2.35;;;;;;;2.24;62.36;96753.72;5098743;28;20040;-75
2022/03/29 03:21:54;;;;;;;8.15;2.42;;;;;;;2.34;62.21;96755.47;5095463;28;20036;-75
2022/03/29 03:24:21;;;;;;;9.00;2.75;;;;;;;2.37;62.09;96756.75;5097010;28;20049;-75
2022/03/29 03:26:47;;;;;;;7.18;1.70;;;;;;;2.27;62.47;96757.75;5084696;28;20531;-74
2022/03/29 03:29:13;;;;;;;5.80;1.98;;;;;;;2.34;62.28;96762.75;5092372;28;20080;-74
2022/03/29 03:31:40;;;;;;;10.82;1.80;;;;;;;2.39;61.97;96752.69;5081238;28;20427;-74
2022/03/29 03:34:05;;;;;;;6.30;1.70;;;;;;;2.40;61.98;96772.34;5074760;28;20392;-74
2022/03/29 03:36:32;;;;;;;5.60;2.08;;;;;;;2.43;61.98;96771.78;5101760;28;20134;-75
2022/03/29 03:38:58;;;;;;;9.02;3.55;;;;;;;2.32;62.26;96763.03;5075497;28;20476;-73
2022/03/29 03:41:25;;;;;;;3.58;1.30;;;;;;;2.35;62.18;96775.13;5079980;28;20097;-73
2022/03/29 03:43:52;;;;;;;3.95;1.38;;;;;;;2.34;62.07;96765.44;5090567;28;20503;-69
2022/03/29 03:46:18;;;;;;;5.45;1.70;;;;;;;2.32;62.26;96773.03;5074692;28;20077;-70
2022/03/29 03:48:44;;;;;;;8.15;1.60;;;;;;;2.32;62.17;96787.31;5070407;28;20131;-70
2022/03/29 03:51:11;;;;;;;5.90;1.52;;;;;;;2.31;62.37;96796.50;5079681;28;20503;-70
2022/03/29 03:53:37;;;;;;;9.60;1.92;;;;;;;2.38;61.99;96794.25;5077906;28;20121;-70
2022/03/29 03:56:04;;;;;;;6.50;2.45;;;;;;;2.45;61.70;96788.47;5062047;28;20397;-70
2022/03/29 03:58:30;;;;;;;7.05;2.10;;;;;;;2.50;61.57;96795.69;5097690;28;20044;-70
2022/03/29 04:00:56;;;;;;;6.45;1.80;;;;;;;2.51;61.41;96786.50;5071513;28;20512;-68
2022/03/29 04:03:23;;;;;;;8.57;2.00;;;;;;;2.47;61.51;96805.16;5071510;28;20055;-68
2022/03/29 04:05:52;;;;;;;4.72;1.58;;;;;;;2.45;61.64;96799.25;5099962;28;20044;-71
2022/03/29 04:08:18;;;;;;;9.32;1.77;;;;;;;2.54;61.42;96813.66;5068856;28;20580;-69
2022/03/29 04:10:45;;;;;;;5.40;1.58;;;;;;;2.57;61.30;96816.84;5082937;28;20044;-70
2022/03/29 04:13:11;;;;;;;4.57;1.80;;;;;;;2.65;61.19;96810.78;5107573;28;20521;-75
2022/03/29 04:15:38;;;;;;;6.25;1.70;;;;;;;2.71;60.63;96798.81;5075590;28;20539;-74
2022/03/29 04:18:05;;;;;;;9.10;3.17;;;;;;;2.67;61.15;96797.81;5052750;28;20142;-75
2022/03/29 04:20:31;;;;;;;6.90;1.98;;;;;;;2.58;61.32;96807.69;5076001;28;20048;-71
2022/03/29 04:22:57;;;;;;;7.95;1.95;;;;;;;2.58;61.54;96816.56;5091044;28;20399;-72
2022/03/29 04:25:23;;;;;;;6.65;1.95;;;;;;;2.50;61.70;96814.56;5072620;28;20546;-71
2022/03/29 04:27:49;;;;;;;8.25;2.20;;;;;;;2.52;61.94;96825.84;5065689;28;20074;-71
2022/03/29 04:30:16;;;;;;;5.43;1.58;;;;;;;2.59;61.57;96831.66;5072323;28;20523;-71
2022/03/29 04:32:43;;;;;;;7.22;1.95;;;;;;;2.59;61.81;96834.34;5074793;28;20112;-74
2022/03/29 04:35:09;;;;;;;7.05;1.90;;;;;;;2.62;61.76;96812.16;5070810;28;20523;-71
2022/03/29 04:37:35;;;;;;;7.32;2.10;;;;;;;2.59;62.07;96841.66;5075835;28;20448;-72
2022/03/29 04:40:01;;;;;;;7.38;2.30;;;;;;;2.69;61.95;96850.38;5057269;28;20048;-71
2022/03/29 04:42:29;;;;;;;7.95;2.80;;;;;;;2.79;61.54;96833.22;5067334;28;20036;-69
2022/03/29 04:44:55;;;;;;;8.13;2.70;;;;;;;2.76;61.48;96814.91;5082944;28;20105;-70
2022/03/29 04:47:21;;;;;;;7.80;2.13;;;;;;;2.78;61.50;96842.41;5081276;28;20043;-70
2022/03/29 04:49:48;;;;;;;10.60;2.00;;;;;;;2.91;61.12;96850.84;5082698;28;20044;-70
2022/03/29 04:52:15;;;;;;;11.43;1.93;;;;;;;2.97;60.87;96836.94;5072564;28;21044;-71
2022/03/29 04:54:44;;;;;;;7.70;2.22;;;;;;;3.04;60.83;96843.84;5081462;28;20313;-70
2022/03/29 04:57:10;;;;;;;6.20;2.10;;;;;;;3.11;60.51;96839.66;5084264;28;20044;-70
2022/03/29 04:59:36;;;;;;;5.97;2.22;;;;;;;3.06;60.52;96849.75;5080634;28;20063;-71
2022/03/29 05:02:19;;;;;;;8.02;2.30;;;;;;;3.10;60.40;96856.97;5061622;28;20064;-70
2022/03/29 05:04:51;;;;;;;6.20;2.10;;;;;;;3.14;60.23;96842.84;5082371;28;20048;-71
2022/03/29 05:07:40;;;;;;;6.00;1.80;;;;;;;3.15;60.47;96855.25;5056253;28;20047;-72
2022/03/29 05:10:08;;;;;;;6.88;1.98;;;;;;;3.30;59.77;96865.78;5075007;28;20125;-72
2022/03/29 05:12:39;;;;;;;8.70;2.30;;;;;;;3.20;59.73;96845.16;5092906;28;20036;-71
2022/03/29 05:15:07;;;;;;;7.47;2.40;;;;;;;3.20;60.15;96866.78;5087787;28;20143;-72
2022/03/29 05:17:34;;;;;;;;;;;;;;;3.19;60.12;96853.56;5060098;28;20052;-71
2022/03/29 05:20:07;;;;;;;7.03;2.40;;;;;;;3.24;59.85;96854.25;5063149;28;19931;-72
2022/03/29 05:22:40;;;;;;;6.70;2.50;;;;;;;3.26;59.78;96862.88;5065871;28;20138;-68
2022/03/29 05:25:07;;;;;;;7.90;2.63;;;;;;;3.30;59.77;96859.59;5076001;28;20044;-68
2022/03/29 05:27:33;;;;;;;12.07;3.63;;;;;;;3.15;60.30;96866.88;5091009;28;20131;-69
2022/03/29 05:30:00;;;;;;;12.23;4.88;;;;;;;3.22;60.05;96858.38;5084268;28;20646;-72
2022/03/29 05:32:26;;;;;;;11.88;3.67;;;;;;;3.28;59.91;96876.09;5080636;28;20066;-71
2022/03/29 05:34:52;;;;;;;8.07;3.00;;;;;;;3.31;59.89;96861.97;5084277;28;20165;-71
2022/03/29 05:37:19;;;;;;;12.63;3.25;;;;;;;3.32;59.67;96852.78;5073654;28;20081;-70
2022/03/29 05:39:45;;;;;;;8.32;2.47;;;;;;;3.34;59.68;96863.28;5078571;28;20047;-70
2022/03/29 05:42:11;;;;;;;5.63;2.40;;;;;;;3.32;59.57;96868.97;5096973;28;20509;-71
2022/03/29 05:44:37;;;;;;;7.78;2.47;;;;;;;3.28;59.88;96878.78;5099897;28;20143;-72
2022/03/29 05:49:50;;;;;;;6.15;2.08;;;;;;;3.33;59.86;96869.78;5078108;28;20424;-72
2022/03/29 05:52:16;;;;;;;14.55;5.13;;;;;;;3.44;59.64;96876.59;5092110;28;20068;-71
2022/03/29 05:54:45;;;;;;;9.65;3.70;;;;;;;3.43;59.66;96857.97;5092622;28;20062;-72
2022/03/29 05:57:11;;;;;;;12.38;4.20;;;;;;;3.44;59.11;96836.09;5055974;28;20564;-72
2022/03/29 05:59:37;;;;;;;9.95;3.50;;;;;;;3.57;59.08;96866.09;5073575;28;20454;-73
2022/03/29 06:02:04;;;;;;;10.00;2.70;;;;;;;3.71;59.23;96872.28;5091718;28;20048;-73
2022/03/29 06:04:31;;;;;;;9.68;3.38;;;;;;;3.80;58.82;96875.06;5091210;28;20400;-76
2022/03/29 06:06:58;;;;;;;10.38;3.40;;;;;;;3.63;59.20;96867.59;5057109;28;20404;-74
2022/03/29 06:09:25;;;;;;;11.73;3.00;;;;;;;3.71;59.23;96885.00;5093122;28;20336;-74
2022/03/29 06:11:52;;;;;;;10.35;3.10;;;;;;;3.65;59.26;96876.19;5092240;28;20530;-75
2022/03/29 06:14:18;;;;;;;9.70;3.05;;;;;;;3.75;58.68;96867.91;5091138;28;20047;-76
2022/03/29 06:16:45;;;;;;;7.07;2.40;;;;;;;3.79;58.54;96877.00;5088442;28;20105;-76
2022/03/29 06:19:11;;;;;;;7.70;2.72;;;;;;;3.77;58.75;96887.31;5091755;28;20395;-76
2022/03/29 06:22:00;;;;;;;6.35;2.33;;;;;;;3.81;58.62;96899.13;5069920;28;20083;-76
2022/03/29 06:24:27;;;;;;;16.33;4.65;;;;;;;3.88;58.40;96889.78;5081859;28;20572;-76
2022/03/29 06:26:55;;;;;;;16.33;6.45;;;;;;;3.97;57.94;96920.44;5071616;28;20046;-76
2022/03/29 06:29:21;;;;;;;9.95;3.20;;;;;;;3.92;58.17;96923.25;5091694;28;20040;-77
2022/03/29 06:31:47;;;;;;;8.80;2.78;;;;;;;3.77;58.56;96937.84;5090446;28;20055;-78
2022/03/29 06:34:13;;;;;;;7.53;2.25;;;;;;;3.65;58.82;96944.53;5088806;28;20047;-77
2022/03/29 06:36:41;;;;;;;5.30;1.92;;;;;;;3.54;59.27;96940.44;5091522;28;20557;-77
2022/03/29 06:39:08;;;;;;;4.72;1.70;;;;;;;3.59;59.62;96961.97;5072394;28;20192;-76
2022/03/29 06:41:34;;;;;;;6.65;1.52;;;;;;;3.41;60.59;96952.81;5071379;28;20127;-77
2022/03/29 06:44:01;;;;;;;5.05;1.60;;;;;;;3.35;60.82;96960.22;5070793;28;20048;-76
2022/03/29 06:46:28;;;;;;;5.20;1.53;;;;;;;3.29;61.24;96966.81;5089869;28;20101;-76
2022/03/29 06:48:56;;;;;;;8.13;1.63;;;;;;;3.28;61.12;96969.78;5105750;28;20484;-76
2022/03/29 06:51:23;;;;;;;5.63;1.45;;;;;;;3.39;60.71;96973.94;5076361;28;20142;-76
2022/03/29 06:53:50;;;;;;;5.50;1.60;;;;;;;3.48;60.17;96977.56;5080438;28;20465;-77
2022/03/29 06:56:17;;;;;;;6.78;1.50;;;;;;;3.45;60.10;96985.44;5081350;28;20075;-76
2022/03/29 06:58:43;;;;;;;3.33;1.40;;;;;;;3.37;60.10;96982.34;5094584;28;20048;-76
2022/03/29 07:01:10;;;;;;;5.90;1.80;;;;;;;3.30;60.10;96970.31;5065519;28;20051;-76
2022/03/29 07:03:36;;;;;;;8.40;2.10;;;;;;;3.27;60.08;96982.50;5099014;28;20397;-77
2022/03/29 07:06:05;;;;;;;7.47;2.00;;;;;;;3.44;59.55;96990.06;5064266;28;20144;-76
2022/03/29 07:08:32;;;;;;;6.82;1.80;;;;;;;3.48;59.17;96990.25;5081841;28;20052;-76
2022/03/29 07:11:19;;;;;;;6.65;2.10;;;;;;;3.53;58.94;96974.75;5083778;28;20484;-75
2022/03/29 07:13:45;;;;;;;4.60;1.70;;;;;;;3.63;58.62;96987.28;5056771;28;20109;-75
2022/03/29 07:16:15;;;;;;;31.10;11.55;;;;;;;3.72;58.44;96989.31;5075203;28;20580;-74
2022/03/29 07:18:42;;;;;;;24.00;9.18;;;;;;;3.76;57.63;96987.59;5071985;28;20048;-74
2022/03/29 07:21:12;;;;;;;29.00;11.85;;;;;;;3.74;57.24;96976.28;5088671;28;20044;-68
2022/03/29 07:23:40;;;;;;;18.50;6.20;;;;;;;3.90;56.52;97006.53;5089772;28;20118;-67
2022/03/29 07:26:06;;;;;;;11.18;3.67;;;;;;;3.89;56.12;97007.63;5091049;28;20044;-71
2022/03/29 07:28:32;;;;;;;11.80;3.88;;;;;;;3.99;55.69;97004.75;5091970;28;20056;-71
2022/03/29 07:30:58;;;;;;;12.75;2.90;;;;;;;4.02;55.05;97024.97;5068630;28;20056;-71
2022/03/29 07:33:25;;;;;;;6.40;1.92;;;;;;;3.86;55.08;97010.94;5072961;28;20066;-70
2022/03/29 07:35:51;;;;;;;7.65;2.10;;;;;;;3.97;54.79;97029.34;5090804;28;20106;-70
2022/03/29 07:38:17;;;;;;;8.50;2.15;;;;;;;3.90;54.90;97033.56;5091409;28;20534;-71
2022/03/29 07:40:44;;;;;;;4.70;1.70;;;;;;;3.80;55.20;97026.44;5080075;28;20040;-71
2022/03/29 07:43:22;;;;;;;7.78;2.15;;;;;;;3.69;55.45;97042.03;5091137;28;20109;-71
2022/03/29 07:45:49;;;;;;;6.53;1.93;;;;;;;3.80;55.38;97042.66;5071853;28;20046;-71
2022/03/29 07:48:15;;;;;;;9.70;3.20;;;;;;;3.83;55.51;97034.75;5089478;28;20138;-73
2022/03/29 07:50:42;;;;;;;12.82;3.80;;;;;;;4.01;55.45;97036.91;5071993;28;20044;-73
2022/03/29 07:53:08;;;;;;;11.73;3.25;;;;;;;4.18;55.18;97039.00;5089331;28;20036;-72
2022/03/29 07:55:36;;;;;;;8.45;2.80;;;;;;;4.44;54.60;97057.44;5090135;28;20055;-72
2022/03/29 07:58:02;;;;;;;8.38;2.22;;;;;;;4.51;54.46;97041.56;5087896;28;20052;-73
2022/03/29 08:00:32;;;;;;;9.60;2.20;;;;;;;4.49;54.49;97043.78;5073424;28;20050;-70
2022/03/29 08:03:02;;;;;;;7.68;2.45;;;;;;;4.58;54.03;97058.22;5093841;28;20039;-71
2022/03/29 08:05:29;;;;;;;6.38;2.00;;;;;;;4.54;53.34;97054.53;5090653;28;20066;-72
2022/03/29 08:08:00;;;;;;;6.30;2.10;;;;;;;4.48;52.81;97053.81;5092950;28;20143;-73
2022/03/29 08:10:28;;;;;;;10.15;3.33;;;;;;;4.42;53.20;97068.53;5094745;28;20507;-71
2022/03/29 08:12:54;;;;;;;;;;;;;;;4.53;52.79;97058.34;5057752;28;20673;-71
2022/03/29 08:15:20;;;;;;;10.10;3.38;;;;;;;4.43;52.61;97069.34;5081904;28;19923;-70
2022/03/29 08:17:48;;;;;;;8.15;2.63;;;;;;;4.32;52.68;97076.88;5096951;28;20043;-71
2022/03/29 08:20:15;;;;;;;7.65;1.88;;;;;;;4.10;52.58;97067.53;5091907;28;20048;-68
2022/03/29 08:22:44;;;;;;;3.47;1.60;;;;;;;4.17;52.21;97072.56;5094305;28;20553;-68
2022/03/29 08:25:14;;;;;;;7.72;2.25;;;;;;;4.35;52.16;97084.38;5088481;28;20596;-69
2022/03/29 08:27:41;;;;;;;6.82;2.50;;;;;;;4.55;51.73;97096.72;5072883;28;20048;-68
2022/03/29 08:30:08;;;;;;;8.63;2.50;;;;;;;4.66;51.59;97097.31;5091430;28;20132;-68
2022/03/29 08:32:35;;;;;;;7.65;3.22;;;;;;;4.77;51.54;97093.31;5092958;28;20047;-67
2022/03/29 08:35:01;;;;;;;7.85;3.08;;;;;;;4.76;51.51;97090.88;5089227;28;20113;-68
2022/03/29 08:37:28;;;;;;;8.85;3.10;;;;;;;4.90;51.15;97097.09;5090419;28;20101;-69
2022/03/29 08:39:55;;;;;;;9.63;2.88;;;;;;;5.04;51.11;97091.63;5072559;28;20097;-71
2022/03/29 08:42:23;;;;;;;8.20;2.65;;;;;;;5.06;51.16;97083.22;5081363;28;20471;-71
2022/03/29 08:44:49;;;;;;;;;;;;;;;5.25;51.18;97105.53;5069685;28;20044;-67
2022/03/29 08:47:15;;;;;;;13.07;5.43;;;;;;;5.24;51.11;97109.34;5090442;28;19924;-72
2022/03/29 08:49:44;;;;;;;12.27;4.10;;;;;;;5.26;50.75;97106.34;5088999;28;20117;-72
2022/03/29 08:52:11;;;;;;;11.18;3.25;;;;;;;5.28;50.54;97112.25;5088810;28;20127;-71
2022/03/29 08:54:38;;;;;;;8.25;3.20;;;;;;;5.44;50.33;97115.38;5071896;28;20059;-71
2022/03/29 08:57:05;;;;;;;12.95;3.40;;;;;;;5.41;50.25;97121.44;5090318;28;20066;-73
2022/03/29 08:59:32;;;;;;;16.67;8.02;;;;;;;5.61;50.02;97125.56;5071903;28;20089;-74
2022/03/29 09:02:07;;;;;;;13.48;4.95;;;;;;;5.72;49.17;97126.13;5089316;28;20147;-75
2022/03/29 09:04:34;;;;;;;10.90;4.00;;;;;;;5.85;49.33;97127.16;5086654;28;20085;-75
2022/03/29 09:07:02;;;;;;;17.73;7.78;;;;;;;5.84;48.84;97130.97;5084835;28;20415;-74
2022/03/29 09:09:30;;;;;;;12.88;5.93;;;;;;;5.72;49.19;97120.69;5095813;28;20068;-75
2022/03/29 09:11:58;;;;;;;13.43;4.80;;;;;;;5.59;49.41;97132.41;5093877;28;20388;-74
2022/03/29 09:14:25;;;;;;;;;;;;;;;5.45;50.12;97141.38;5086356;28;20074;-76
2022/03/29 09:16:52;;;;;;;10.65;2.70;;;;;;;5.29;50.41;97148.25;5075109;28;19924;-74
2022/03/29 09:19:19;;;;;;;8.45;2.10;;;;;;;5.24;50.73;97149.19;5085511;28;20067;-75
2022/03/29 09:21:46;;;;;;;43.17;18.85;;;;;;;5.36;50.29;97168.41;5091218;28;20101;-76
2022/03/29 09:24:14;;;;;;;13.95;5.88;;;;;;;5.35;50.21;97158.69;5090261;28;20052;-76
2022/03/29 09:26:42;;;;;;;8.63;3.20;;;;;;;5.18;50.39;97156.63;5065540;28;20048;-75
2022/03/29 09:29:15;;;;;;;6.28;2.40;;;;;;;5.03;50.44;97156.94;5088313;28;20040;-76
2022/03/29 09:31:43;;;;;;;5.65;2.17;;;;;;;5.20;50.04;97164.44;5069323;28;20056;-78
2022/03/29 09:34:15;;;;;;;9.20;2.40;;;;;;;5.18;49.59;97172.06;5090117;28;20059;-77
2022/03/29 09:36:43;;;;;;;6.00;2.00;;;;;;;5.16;49.58;97168.84;5089672;28;20337;-74
2022/03/29 09:39:29;;;;;;;5.90;2.05;;;;;;;5.24;49.42;97166.22;5069264;28;20051;-74
2022/03/29 09:41:58;;;;;;;8.38;2.45;;;;;;;5.31;49.43;97173.16;5073520;28;20058;-75
2022/03/29 09:44:40;;;;;;;9.38;2.50;;;;;;;5.28;49.29;97168.31;5077402;28;20052;-75
2022/03/29 09:47:08;;;;;;;7.18;2.22;;;;;;;5.48;48.78;97172.50;5078538;28;20070;-74
2022/03/29 09:49:54;;;;;;;5.80;2.15;;;;;;;5.64;48.20;97167.53;5057609;28;20235;-77
2022/03/29 09:52:22;;;;;;;7.60;2.45;;;;;;;5.91;47.94;97169.34;5071777;28;20048;-77
2022/03/29 09:55:09;;;;;;;7.03;2.40;;;;;;;6.18;47.48;97162.22;5089061;28;20052;-77
2022/03/29 09:57:39;;;;;;;6.60;3.03;;;;;;;6.36;47.18;97170.44;5067037;28;20124;-77
2022/03/29 10:00:08;;;;;;;5.72;2.13;;;;;;;6.36;46.88;97165.78;5050154;28;20052;-77
2022/03/29 10:02:44;;;;;;;5.05;1.90;;;;;;;6.36;46.93;97176.66;5054425;28;20048;-78
2022/03/29 10:05:15;;;;;;;5.20;1.90;;;;;;;6.21;46.75;97172.44;5049585;28;20423;-77
2022/03/29 10:07:45;;;;;;;6.22;2.30;;;;;;;6.13;46.94;97170.44;5054448;28;20465;-75
2022/03/29 10:10:12;;;;;;;5.25;1.98;;;;;;;6.12;47.05;97176.22;5093226;28;20052;-76
2022/03/29 10:12:39;;;;;;;7.85;2.00;;;;;;;6.09;47.13;97189.28;5075927;28;20109;-76
2022/03/29 10:15:06;;;;;;;6.57;2.20;;;;;;;6.01;47.08;97194.59;5096800;28;20055;-74
2022/03/29 10:17:33;;;;;;;7.13;2.30;;;;;;;5.96;47.24;97181.97;5092813;28;20421;-77
2022/03/29 10:20:01;;;;;;;10.02;2.53;;;;;;;5.90;47.05;97188.63;5091217;28;20142;-78
2022/03/29 10:22:31;;;;;;;7.97;2.50;;;;;;;5.88;47.09;97193.56;5074448;28;20052;-74
2022/03/29 10:24:57;;;;;;;6.10;2.13;;;;;;;5.81;47.04;97194.78;5089287;28;20047;-78
2022/03/29 10:27:24;;;;;;;8.80;2.30;;;;;;;5.70;47.11;97185.28;5090447;28;20507;-77
2022/03/29 10:29:50;;;;;;;6.80;2.15;;;;;;;5.68;47.09;97201.06;5074227;28;20040;-77
2022/03/29 10:32:31;;;;;;;9.93;2.28;;;;;;;5.62;47.29;97202.28;5091024;28;20040;-77
2022/03/29 10:35:07;;;;;;;29.63;11.90;;;;;;;5.59;47.49;97213.72;5070831;28;20253;-78
2022/03/29 10:37:53;;;;;;;16.95;8.02;;;;;;;5.51;47.33;97207.13;5090855;28;20105;-66
2022/03/29 10:40:43;;;;;;;11.70;4.82;;;;;;;5.49;47.56;97212.03;5077788;28;20146;-67
2022/03/29 10:43:28;;;;;;;10.93;3.70;;;;;;;5.47;47.55;97220.50;5042677;28;20051;-68
2022/03/29 10:45:55;;;;;;;13.77;3.28;;;;;;;5.43;47.37;97222.19;5091974;28;20040;-68
2022/03/29 10:48:21;;;;;;;9.15;2.78;;;;;;;5.42;47.76;97219.81;5072603;28;20093;-68
2022/03/29 10:50:57;;;;;;;16.08;6.72;;;;;;;5.42;47.68;97223.31;5072695;28;20048;-68
2022/03/29 10:53:26;;;;;;;17.88;7.28;;;;;;;5.41;47.76;97229.03;5089445;28;20048;-67
2022/03/29 10:56:15;;;;;;;15.55;6.18;;;;;;;5.45;47.57;97224.63;5069471;28;20068;-69
2022/03/29 10:59:14;;;;;;;12.57;4.80;;;;;;;5.44;47.65;97225.72;5057431;28;20051;-67
2022/03/29 11:01:42;;;;;;;9.32;3.72;;;;;;;5.37;48.04;97232.34;5068825;28;20130;-67
2022/03/29 11:04:20;;;;;;;10.57;3.05;;;;;;;5.37;47.86;97220.72;5079873;28;20152;-70
2022/03/29 11:07:04;;;;;;;;;;;;;;;5.48;47.59;97219.38;5062082;28;20411;-66
2022/03/29 11:09:32;;;;;;;6.78;2.42;;;;;;;5.33;47.91;97228.63;5065908;28;19924;-67
2022/03/29 11:11:58;;;;;;;;;;;;;;;5.25;47.89;97223.94;5067846;28;20043;-67
2022/03/29 11:14:39;;;;;;;6.50;2.63;;;;;;;5.28;47.86;97223.34;5072305;28;20311;-67
2022/03/29 11:17:39;;;;;;;11.57;3.20;;;;;;;5.30;47.73;97223.00;5090232;28;20059;-70
2022/03/29 11:20:29;;;;;;;7.10;2.70;;;;;;;5.25;47.70;97226.66;5088975;28;20477;-66
2022/03/29 11:22:58;;;;;;;8.32;2.70;;;;;;;5.27;48.12;97226.34;5085335;28;20117;-70
2022/03/29 11:25:25;;;;;;;25.00;10.27;;;;;;;5.30;47.96;97229.25;5092032;28;20135;-68
2022/03/29 11:27:52;;;;;;;15.52;6.90;;;;;;;5.28;48.15;97219.81;5088601;28;20040;-69
2022/03/29 11:30:19;;;;;;;14.23;6.38;;;;;;;5.32;47.94;97224.31;5056233;28;20055;-68
2022/03/29 11:32:46;;;;;;;12.82;5.20;;;;;;;5.28;48.15;97227.94;5078186;28;20044;-68
2022/03/29 11:35:15;;;;;;;16.20;4.63;;;;;;;5.33;48.00;97233.25;5087906;28;20455;-69
2022/03/29 11:37:43;;;;;;;11.77;3.47;;;;;;;5.28;47.99;97219.81;5071213;28;20052;-68
2022/03/29 11:40:11;;;;;;;7.55;3.00;;;;;;;5.36;48.15;97232.66;5056668;28;20047;-69
2022/03/29 11:42:45;;;;;;;6.60;2.70;;;;;;;5.43;47.92;97226.81;5069206;28;20048;-69
2022/03/29 11:45:12;;;;;;;7.50;2.65;;;;;;;5.36;47.91;97227.22;5090540;28;20068;-67
2022/03/29 11:47:40;;;;;;;8.20;2.35;;;;;;;5.47;47.73;97249.50;5071277;28;20045;-68
2022/03/29 11:50:07;;;;;;;8.77;2.22;;;;;;;5.56;47.57;97247.69;5061506;28;20071;-68
2022/03/29 11:52:35;;;;;;;6.65;2.28;;;;;;;5.53;47.35;97246.38;5080638;28;20136;-69
2022/03/29 11:55:01;;;;;;;8.57;2.42;;;;;;;5.50;47.55;97251.59;5091439;28;20052;-70
2022/03/29 11:57:30;;;;;;;7.60;2.17;;;;;;;5.51;47.36;97254.00;5056845;28;20048;-69
2022/03/29 11:59:58;;;;;;;5.85;2.13;;;;;;;5.49;47.39;97250.00;5087571;28;20520;-68
2022/03/29 12:02:26;;;;;;;5.65;2.50;;;;;;;5.45;47.50;97262.56;5051485;28;20081;-69
2022/03/29 12:04:53;;;;;;;9.93;2.55;;;;;;;5.52;47.27;97258.31;5089063;28;20065;-70
2022/03/29 12:07:35;;;;;;;6.13;2.33;;;;;;;5.45;47.04;97265.25;5072257;28;20040;-68
2022/03/29 12:10:04;;;;;;;6.82;2.22;;;;;;;5.36;47.36;97259.75;5055993;28;20095;-68
2022/03/29 12:12:30;;;;;;;8.05;2.08;;;;;;;5.35;47.00;97269.78;5066068;28;20063;-77
2022/03/29 12:15:02;;;;;;;7.00;2.35;;;;;;;5.29;47.04;97273.72;5071995;28;20426;-77
2022/03/29 12:17:30;;;;;;;5.95;2.38;;;;;;;5.29;47.00;97278.31;5073305;28;20457;-77
2022/03/29 12:19:56;;;;;;;7.80;3.28;;;;;;;5.23;47.04;97273.00;5070925;28;20101;-77
2022/03/29 12:22:26;;;;;;;9.55;4.30;;;;;;;5.28;47.17;97279.41;5070878;28;20040;-77